Nearby METAR Reports

 

KCIC - Chico Municipal, California, USA
Distance from station: SSW 12mi, 20km
Updated: Thu, 20-Jun-2024 12:53pm PDT
Clear
Clear
 Wind from calm
Wind: Calm
Temperature: 81°F , 27°C
Dew Point: 48°F , 9°C
Humidity: 32%
Barometer: 29.81 inHg , 1009.5 hPa
Clouds: Clear
Visibility: 10 miles , 16 km
2024/06/20 19:53 KCIC 201953Z 00000KT 10SM CLR 27/09 A2981
KOVE - Oroville, California, USA
Distance from station: SSE 31mi, 50km
Updated: Thu, 20-Jun-2024 12:53pm PDT
Clear
Clear
 Wind from calm
Wind: Calm
Temperature: 82°F , 28°C
Dew Point: 48°F , 9°C
Humidity: 30%
Barometer: 29.82 inHg , 1009.8 hPa
Clouds: Clear
Visibility: 10 miles , 16 km
2024/06/20 19:53 KOVE 201953Z AUTO 00000KT 10SM CLR 28/09 A2982 RMK AO2 SLP098 T02780094
 
KRBL - Red Bluff, California, USA
Distance from station: WNW 31mi, 50km
Updated: Thu, 20-Jun-2024 12:54pm PDT
Clear
Clear
 Wind from NNE
Wind: NNE 8 mph , 13 km/h
Temperature: 91°F , 33°C
Dew Point: 43°F , 6°C
Humidity: 18%
Barometer: 29.77 inHg , 1008.1 hPa
Clouds: Clear
Visibility: 10 miles , 16 km
2024/06/20 19:54 KRBL 201954Z AUTO 03007KT 350V050 10SM CLR 33/06 A2977 RMK AO2 SLP078 T03280056
KRDD - Redding, California, USA
Distance from station: NW 50mi, 80km
Updated: Thu, 20-Jun-2024 12:53pm PDT
Clear
Clear
 Wind from varies
Wind: varies 3 mph , 6 km/h
Temperature: 93°F , 34°C
Dew Point: 43°F , 6°C
Humidity: 17%
Barometer: 29.75 inHg , 1007.5 hPa
Clouds: Clear
Visibility: 10 miles , 16 km
2024/06/20 19:53 KRDD 201953Z VRB03KT 10SM CLR 34/06 A2975 RMK AO2 SLP069 T03390056
 
KMYV - Marysville, California, USA
Distance from station: S 59mi, 95km
Updated: Thu, 20-Jun-2024 12:53pm PDT
Clear
Clear
 Wind from SSW
Wind: SSW 6 mph , 9 km/h
Temperature: 82°F , 28°C
Dew Point: 54°F , 12°C
Humidity: 37%
Barometer: 29.81 inHg , 1009.5 hPa
Clouds: Clear
Visibility: 10 miles , 16 km
2024/06/20 19:53 KMYV 201953Z AUTO 21005KT 10SM CLR 28/12 A2981 RMK AO2 SLP098 T02780117
KBAB - Beale Afb/Marysv, California, USA
Distance from station: SSE 59mi, 96km
Updated: Thu, 20-Jun-2024 12:55pm PDT
Few Clouds
Few Clouds
 Wind from SSW
Wind: SSW 6 mph , 9 km/h
Temperature: 81°F , 27°C
Dew Point: 50°F , 10°C
Humidity: 34%
Barometer: 29.80 inHg , 1009.1 hPa
Clouds: Few Clouds
Visibility: 10 miles , 16 km
Cloud details: Few Clouds 16000 ft
Few Clouds 19000 ft
2024/06/20 19:55 KBAB 201955Z AUTO 20005KT 10SM FEW160 FEW190 27/10 A2980 RMK AO2 SLP093 T02690097 $
 
KGOO - Grass Valley, California, USA
Distance from station: SE 63mi, 102km
Updated: Thu, 20-Jun-2024 1:35pm PDT
Clear
Clear
 Wind from W
Wind: W 5 mph , 7 km/h
Temperature: 73°F , 23°C
Dew Point: 41°F , 5°C
Humidity: 31%
Barometer: 29.92 inHg , 1013.2 hPa
Clouds: Clear
Visibility: 10 miles , 16 km
2024/06/20 20:35 KGOO 202035Z AUTO 28004KT 10SM CLR 23/05 A2992 RMK A01
KBLU - Emigrant Gap, California, USA
Distance from station: SE 71mi, 115km
Updated: Thu, 20-Jun-2024 12:52pm PDT
Clear
Clear
 Wind from varies
Wind: varies 5 mph , 7 km/h
Temperature: 72°F , 22°C
Dew Point: 39°F , 4°C
Humidity: 31%
Barometer: 30.03 inHg , 1016.9 hPa
Clouds: Clear
Visibility: 10 miles , 16 km
2024/06/20 19:52 KBLU 201952Z AUTO VRB04KT 10SM CLR 22/04 A3003 RMK AO2 SLP086 T02170039
 
KLHM - Lincoln, California, USA
Distance from station: SSE 74mi, 119km
Updated: Thu, 20-Jun-2024 1:35pm PDT
Clear
Clear
 Wind from W
Wind: W 5 mph , 7 km/h
Temperature: 82°F , 28°C
Dew Point: 45°F , 7°C
Humidity: 26%
Barometer: 29.80 inHg , 1009.1 hPa
Clouds: Clear
Visibility: 10 miles , 16 km
2024/06/20 20:35 KLHM 202035Z AUTO 27004KT 10SM CLR 28/07 A2980 RMK AO1
KAUN - Auburn Muni, California, USA
Distance from station: SSE 77mi, 123km
Updated: Thu, 20-Jun-2024 1:35pm PDT
Clear
Clear
 Wind from varies
Wind: varies 3 mph , 6 km/h
Temperature: 77°F , 25°C
Dew Point: 45°F , 7°C
Humidity: 32%
Barometer: 29.86 inHg , 1011.2 hPa
Clouds: Clear
Visibility: 9 miles , 14 km
2024/06/20 20:35 KAUN 202035Z AUTO VRB03KT 9SM CLR 25/07 A2986 RMK A01
 
KO54 - Weaverville, California, USA
Distance from station: NW 84mi, 135km
Updated: Thu, 20-Jun-2024 1:35pm PDT
Clear
Clear
 Wind from calm
Wind: Calm
Temperature: 84°F , 29°C
Dew Point: 39°F , 4°C
Humidity: 20%
Barometer: 29.87 inHg , 1011.5 hPa
Clouds: Clear
Visibility: 10 miles , 16 km
2024/06/20 20:35 KO54 202035Z AUTO 00000KT 10SM CLR 29/04 A2987 RMK A01
KSMF - Sacramento/Metro, California, USA
Distance from station: S 86mi, 139km
Updated: Thu, 20-Jun-2024 12:53pm PDT
Mostly cloudy
Mostly cloudy
 Wind from W
Wind: W 6 mph , 9 km/h
Temperature: 81°F , 27°C
Dew Point: 50°F , 10°C
Humidity: 34%
Barometer: 29.81 inHg , 1009.5 hPa
Clouds: Mostly cloudy
Visibility: 10 miles , 16 km
Cloud details: Mostly cloudy 20000 ft
2024/06/20 19:53 KSMF 201953Z 27005KT 10SM BKN200 27/10 A2981 RMK AO2 SLP095 T02720100
 
KMCC - Mcclellan Afb, California, USA
Distance from station: SSE 90mi, 145km
Updated: Thu, 20-Jun-2024 1:35pm PDT
Clear
Clear
 Wind from varies
Wind: varies 5 mph , 7 km/h
Temperature: 82°F , 28°C
Dew Point: 46°F , 8°C
Humidity: 28%
Barometer: 29.80 inHg , 1009.1 hPa
Clouds: Clear
Visibility: 10 miles , 16 km
2024/06/20 20:35 KMCC 202035Z AUTO VRB04KT 10SM CLR 28/08 A2980 RMK AO2 PWINO
KTRK - Truckee Tahoe, California, USA
Distance from station: ESE 96mi, 155km
Updated: Thu, 20-Jun-2024 12:50pm PDT
Partly cloudy
Partly cloudy
 Wind from SSE
Wind: SSE 13 mph , 20 km/h, Gust: 16 mph , 26 km/h
Temperature: 77°F , 25°C
Dew Point: 21°F , -6°C
Humidity: 12%
Barometer: 30.04 inHg , 1017.3 hPa
Clouds: Partly cloudy
Visibility: 10 miles , 16 km
Cloud details: Partly cloudy 25000 ft
2024/06/20 19:50 KTRK 201950Z 16011G14KT 10SM SCT250 25/M06 A3004
 
KUKI - Ukiah, California, USA
Distance from station: SW 97mi, 156km
Updated: Thu, 20-Jun-2024 12:56pm PDT
Clear
Clear
 Wind from SE
Wind: SE 5 mph , 7 km/h
Temperature: 82°F , 28°C
Dew Point: 46°F , 8°C
Humidity: 28%
Barometer: 29.83 inHg , 1010.2 hPa
Clouds: Clear
Visibility: 10 miles , 16 km
2024/06/20 19:56 KUKI 201956Z AUTO 14004KT 10SM CLR 28/08 A2983 RMK AO2 SLP093 T02830078
KEDU - Davis, California, USA
Distance from station: S 97mi, 157km
Updated: Thu, 20-Jun-2024 1:35pm PDT
Few Clouds
Few Clouds
 
Temperature: 81°F , 27°C
Dew Point: 50°F , 10°C
Humidity: 34%
Barometer: 29.81 inHg , 1009.5 hPa
Clouds: Few Clouds
Visibility: 10 miles , 16 km
Cloud details: Few Clouds 6000 ft
Few Clouds 9000 ft
2024/06/20 20:35 KEDU 202035Z AUTO 10SM FEW060 FEW090 27/10 A2981 RMK AO1
 
KMHR - Mather Field, California, USA
Distance from station: SSE 100mi, 161km
Updated: Thu, 20-Jun-2024 1:35pm PDT
Clear
Clear
 Wind from varies
Wind: varies 6 mph , 9 km/h
Temperature: 82°F , 28°C
Dew Point: 46°F , 8°C
Humidity: 28%
Barometer: 29.79 inHg , 1008.8 hPa
Clouds: Clear
Visibility: 10 miles , 16 km
2024/06/20 20:35 KMHR 202035Z AUTO VRB05KT 10SM CLR 28/08 A2979 RMK A01
KMHS - Mount Shasta, California, USA
Distance from station: NNW 100mi, 161km
Updated: Thu, 20-Jun-2024 12:56pm PDT
Clear
Clear
 Wind from calm
Wind: Calm
Temperature: 82°F , 28°C
Dew Point: 43°F , 6°C
Humidity: 25%
Barometer: 29.95 inHg , 1014.2 hPa
Clouds: Clear
Visibility: 10 miles , 16 km
2024/06/20 19:56 KMHS 201956Z AUTO 00000KT 10SM CLR 28/06 A2995 RMK AO2 SLP125 T02830061
 
KRTS - Reno/Stead, Nevada, USA
Distance from station: E 100mi, 161km
Updated: Thu, 20-Jun-2024 1:35pm PDT
Clear
Clear
 Wind from varies
Wind: varies 3 mph , 6 km/h, Gust: 15 mph , 24 km/h
Temperature: 79°F , 26°C
Dew Point: 12°F , -11°C
Humidity: 8%
Barometer: 29.99 inHg , 1015.6 hPa
Clouds: Clear
Visibility: 10 miles , 16 km
2024/06/20 20:35 KRTS 202035Z AUTO VRB03G13KT 10SM CLR 26/M11 A2999 RMK AO2
KSAC - Sacramento, California, USA
Distance from station: S 100mi, 162km
Updated: Thu, 20-Jun-2024 12:53pm PDT
Clear
Clear
 Wind from SW
Wind: SW 6 mph , 9 km/h
Temperature: 79°F , 26°C
Dew Point: 52°F , 11°C
Humidity: 39%
Barometer: 29.82 inHg , 1009.8 hPa
Clouds: Clear
Visibility: 10 miles , 16 km
2024/06/20 19:53 KSAC 201953Z 23005KT 10SM CLR 26/11 A2982 RMK AO2 SLP097 T02610111